메인 페이지
METAR-TAF:

METAR-TAF

공항 :

다마스쿠스 국제공항

다마스쿠스, 시리아

위도: 33-25N, 경도: 036-31E, 고도: 608m

현재 날씨관측

예보는 43분 전, 16:00시(UTC)에 발표되었습니다.
서남서16kt
온도 28°C
습도 20%
기압 1012 hPa
시정 10km 이상
1500m 미만 상공 구름 및 적란운 없음

METAR: OSDI 311600Z 24016KT CAVOK 28/03 Q1012

시각: 19:43 (16:43 UTC)

예보

예보 대상 시간: 31일 12시부터 01일 18시까지 (UTC)
남서15kt
시정 10km 이상
1500m 미만 상공 구름 및 적란운 없음
일시적
01일 00시부터 01일 09시까지 (UTC)
여러 방향의 바람 3kt

TAF: OSDI 3112/0118 22015KT CAVOK TEMPO 0100/0109 VRB03KT

4,000개 이상의 공항 관측 자료 및 예보 (METAR 및 TAF 보고).

지도상에서 검색 가능한 기상관측소가 노란 점과 빨간 점으로 표시되어 있습니다.

기상관측소 명을 보려면 표시 위로 마우스를 이동하세요.

날씨 관측과 예보를 보려면 클릭하세요.

지도 변경 : 확대하려면 엑스 표시가 있는 녹색 버튼, 축소하려면 빼기 표시가 있는 녹색 버튼, 다음 페이지의 지도를 보려면 녹색 화살표를 클릭하세요.


METAR-TAF: